This is the latest recevied weather packets stored in our database for station/object KD4KKF. If no packets are shown the sender has not sent any weather packets the latest 10 day(s).
| Time | Temp. | Humidity | Pressure | Rain* | Wind** | Luminosity | Snow |
|---|---|---|---|---|---|---|---|
| 1777157330 | 26.67° C | 65% | 1007 hPa | 0 mm | - | 198 W/m² | - |
| 1777157030 | 26.67° C | 66% | 1007 hPa | 0 mm | - | 252 W/m² | - |
| 1777156730 | 26.67° C | 64% | 1007 hPa | 0 mm | - | 282 W/m² | - |
| 1777156427 | 27.22° C | 65% | 1007.1 hPa | 0 mm | - | 289 W/m² | - |
| 1777156123 | 27.22° C | 65% | 1007.3 hPa | 0 mm | - | 308 W/m² | - |
| 1777155821 | 27.22° C | 69% | 1007.1 hPa | 0 mm | - | 167 W/m² | - |
| 1777155520 | 26.67° C | 69% | 1006.9 hPa | 0 mm | - | 390 W/m² | - |
| 1777155218 | 25.56° C | 72% | 1007 hPa | 0 mm | - | 237 W/m² | - |
| 1777154915 | 25.56° C | 71% | 1007.3 hPa | 0 mm | - | 141 W/m² | - |
| 1777154611 | 25.56° C | 73% | 1007.2 hPa | 0 mm | - | 144 W/m² | - |
| 1777154308 | 25.56° C | 71% | 1007.1 hPa | 0 mm | - | 173 W/m² | - |
| 1777154004 | 25.56° C | 71% | 1007.2 hPa | 0 mm | - | 79 W/m² | - |
| 1777153700 | 25.56° C | 70% | 1007 hPa | 0 mm | - | 75 W/m² | - |
| 1777153396 | 25.56° C | 69% | 1007.1 hPa | 0 mm | - | 70 W/m² | - |
| 1777153092 | 25.56° C | 70% | 1007.2 hPa | 0 mm | - | 111 W/m² | - |
| 1777152789 | 25.56° C | 70% | 1007.2 hPa | 0 mm | - | 121 W/m² | - |
| 1777152486 | 25.56° C | 70% | 1007.1 hPa | 0 mm | - | 90 W/m² | - |
| 1777152182 | 26.11° C | 69% | 1007.1 hPa | 0 mm | - | 96 W/m² | - |
| 1777151877 | 26.67° C | 66% | 1007.1 hPa | 0 mm | - | 131 W/m² | - |
| 1777151573 | 26.67° C | 65% | 1007 hPa | 0 mm | - | 101 W/m² | - |
| 1777151270 | 27.78° C | 61% | 1006.9 hPa | 0 mm | - | 208 W/m² | - |
| 1777150965 | 27.78° C | 63% | 1006.9 hPa | 0 mm | - | 624 W/m² | - |
| 1777150659 | 27.22° C | 66% | 1006.7 hPa | 0 mm | - | 652 W/m² | - |
| 1777150356 | 27.22° C | 65% | 1006.9 hPa | 0 mm | - | 225 W/m² | - |
| 1777150053 | 27.22° C | 67% | 1007.1 hPa | 0 mm | - | 657 W/m² | - |
* Rain latest hour (hover to see other rain measurements)
** Current wind speed in m/s (hover to see current wind gust speed)